Flight Track Log - Related Links

Times and Time Zones

All times are in EDT time to prevent confusion due to time zone crossing. See the N173AA flight status page for this flight to view local times or setup timezone preferences in your user account.

Time Position Orientation Groundspeed Altitude Reporting Facility
EDT Latitude Longitude Course Direction KTS MPH feet Rate Location/Type
Mon 09:34:18 AM 35.7853 -78.3036 107° East 263 303 7,400  Level Washington Center
Mon 09:35:18 AM 35.7661 -78.2261 107° East 268 308 7,400  Level Washington Center
Mon 09:36:18 AM 35.7472 -78.1383 105° East 268 308 7,400  Level Washington Center
Mon 09:37:18 AM 35.7281 -78.0483 105° East 268 308 7,400  Level Washington Center
Mon 09:38:18 AM 35.7092 -77.9556 104° East 268 308 7,400  Level Washington Center
Mon 09:39:18 AM 35.6922 -77.8656 103° East 268 308 7,400 50 Level Washington Center
Mon 09:40:18 AM 35.6731 -77.7781 105° East 268 308 7,500 50 Climbing Washington Center
Mon 09:41:18 AM 35.6558 -77.6883 103° East 268 308 7,500 -250 Level Washington Center
Mon 09:42:18 AM 35.6406 -77.6008 102° East 268 308 7,000 -58 Descending Washington Center
Mon 09:44:00 AM 35.6069 -77.7612 258° West  Level Estimated
Mon 09:51:00 AM 35.4661 -78.4202 256° West  Level Estimated
Mon 09:52:00 AM 35.4173 -78.4968 232° Southwest  Level FlightAware Approximate
Mon 09:53:00 AM 35.3972 -78.5908 256° West  Level Estimated
Mon 09:54:00 AM 35.3770 -78.6847 253° West  Level Estimated
Mon 09:55:00 AM 35.3568 -78.7786 260° West  Level Estimated
Mon 09:56:00 AM 35.3365 -78.8725 251° West  Level Estimated
Mon 09:57:00 AM 35.3005 -78.9589 243° Southwest  Level FlightAware Approximate
Mon 09:58:00 AM 35.2802 -79.0527 258° West  Level Estimated
Mon 09:59:00 AM 35.2599 -79.1465 258° West  Level Estimated
Mon 10:00:00 AM 35.2416 -79.2409 257° West  Level FlightAware Approximate
Mon 10:01:00 AM 35.2211 -79.3345 251° West  Level Estimated
Mon 10:02:00 AM 35.2006 -79.4282 255° West  Level Estimated
Mon 10:03:00 AM 35.1795 -79.5216 255° West  Level FlightAware Approximate
Mon 10:04:00 AM 35.1584 -79.6150 255° West  Level FlightAware Approximate
Mon 10:05:00 AM 35.1372 -79.7083 255° West  Level FlightAware Approximate
Mon 10:06:00 AM 35.1160 -79.8016 254° West  Level FlightAware Approximate
Mon 10:07:00 AM 35.0947 -79.8948 254° West  Level FlightAware Approximate
Mon 10:08:00 AM 35.0737 -79.9882 255° West  Level Estimated
Mon 10:09:00 AM 35.0527 -80.0815 255° West  Level FlightAware Approximate
Mon 10:10:00 AM 35.0316 -80.1747 255° West  Level FlightAware Approximate
Mon 10:11:00 AM 35.0104 -80.2679 255° West  Level FlightAware Approximate
Mon 10:12:00 AM 34.9892 -80.3611 254° West  Level FlightAware Approximate
Mon 10:13:00 AM 34.9679 -80.4542 254° West  Level FlightAware Approximate
Mon 10:14:00 AM 34.9465 -80.5472 254° West  Level FlightAware Approximate
Mon 10:15:00 AM 34.9251 -80.6402 254° West  Level FlightAware Approximate
Mon 10:16:00 AM 34.9036 -80.7332 254° West  Level FlightAware Approximate
Mon 10:17:00 AM 34.8820 -80.8261 254° West  Level FlightAware Approximate
Mon 10:18:00 AM 34.8603 -80.9190 254° West  Level FlightAware Approximate
Mon 10:19:00 AM 34.8386 -81.0118 254° West  Level FlightAware Approximate
Mon 10:20:00 AM 34.8168 -81.1045 254° West  Level FlightAware Approximate
Mon 10:21:00 AM 34.7949 -81.1973 254° West  Level FlightAware Approximate
Mon 10:22:00 AM 34.7730 -81.2899 254° West  Level Estimated
Mon 10:23:00 AM 34.7508 -81.3825 254° West  Level FlightAware Approximate
Mon 10:24:00 AM 34.7286 -81.4750 254° West  Level FlightAware Approximate
Mon 10:25:00 AM 34.7063 -81.5674 254° West  Level FlightAware Approximate
Mon 10:26:00 AM 34.6839 -81.6598 254° West  Level FlightAware Approximate
Mon 10:27:00 AM 34.6614 -81.7522 254° West  Level FlightAware Approximate
Mon 10:28:00 AM 34.6389 -81.8445 254° West  Level FlightAware Approximate
Mon 10:28:07 AM 35.6800 -77.4867 298° West 362 417 4,800  Level Washington Center
Mon 10:29:00 AM 34.6163 -81.9367 253° West  Level FlightAware Approximate
Mon 10:29:06 AM 35.6789 -77.5608 269° West 287 330 7,000  Level Washington Center
Mon 10:30:00 AM 34.5937 -82.0289 253° West  Level FlightAware Approximate
Mon 10:30:07 AM 35.6881 -77.6328 279° West 246 283 8,700  Level Washington Center
Mon 10:31:00 AM 34.5709 -82.1211 253° West  Level FlightAware Approximate
Mon 10:31:06 AM 35.7033 -77.7125 283° West 233 268 10,400  Level Washington Center
Mon 10:32:00 AM 34.5481 -82.2132 253° West  Level FlightAware Approximate
Mon 10:32:06 AM 35.7164 -77.7922 281° West 233 268 12,000  Level Washington Center
Mon 10:33:07 AM 35.7317 -77.8769 283° West 245 282 13,500 1,700 Climbing Washington Center
Mon 10:34:06 AM 35.7486 -77.9619 284° West 250 288 15,400 1,700 Climbing Washington Center
Mon 10:36:07 AM 35.7769 -78.1164 283° West 238 274 18,600 1,600 Climbing Washington Center
Mon 10:37:06 AM 35.7875 -78.2039 278° West 233 268 20,200 1,475 Climbing Washington Center
Mon 10:39:06 AM 35.8172 -78.3661 283° West 238 274 23,000 1,333 Climbing Washington Center
Mon 10:40:06 AM 35.8322 -78.4436 283° West 238 274 24,200 4,463 Climbing Washington Center
Mon 10:41:07 AM 35.8425 -78.5258 279° West 238 274 32,000 400 Climbing Washington Center
Mon 10:42:06 AM 35.8508 -78.6183 276° West 245 282 25,000 -3,277 Descending Washington Center
Mon 10:43:06 AM 35.8628 -78.7164 279° West 274 315 25,500 500 Climbing Washington Center
Mon 10:44:06 AM 35.8769 -78.8092 281° West 281 323 26,000 545 Climbing Washington Center
Mon 10:45:07 AM 35.8539 -78.8953 252° West 265 305 26,600 645 Climbing Washington Center
Mon 10:46:07 AM 35.8267 -78.9761 247° West 265 305 27,300 756 Climbing Washington Center
Mon 10:47:06 AM 35.8014 -79.0544 248° West 260 299 28,100 807 Climbing Washington Center
Mon 10:48:06 AM 35.7761 -79.1303 248° West 248 285 28,900 900 Climbing Washington Center
Mon 10:49:06 AM 35.7531 -79.2058 249° West 248 285 29,900 992 Climbing Washington Center
Mon 10:50:07 AM 35.7300 -79.2739 247° West 242 278 30,900 1,000 Climbing Washington Center
Mon 10:51:06 AM 35.7072 -79.3419 248° West 230 265 31,900 555 Climbing Washington Center
Mon 10:52:06 AM 35.6839 -79.4175 249° West 230 265 32,000 31 Climbing Washington Center
Mon 10:54:17 AM 35.6336 -79.5928 251° West 246 283 32,000  Level Atlanta Center
Mon 10:55:17 AM 35.6139 -79.6808 255° West 263 303 32,000  Level Atlanta Center
Mon 10:56:17 AM 35.5878 -79.7689 250° West 273 314 32,000  Level Atlanta Center
Mon 10:57:17 AM 35.5636 -79.8569 251° West 273 314 32,000  Level Atlanta Center
Mon 10:58:17 AM 35.5372 -79.9450 250° West 273 314 32,000  Level Atlanta Center
Mon 10:59:17 AM 35.5108 -80.0281 249° West 273 314 32,000  Level Atlanta Center
Mon 11:00:17 AM 35.4806 -80.1264 249° West 273 314 32,000  Level Atlanta Center
Mon 11:01:17 AM 35.4522 -80.2144 248° West 273 314 32,000  Level Atlanta Center
Mon 11:02:17 AM 35.4236 -80.3050 249° West 273 314 32,000  Level Atlanta Center
Mon 11:03:17 AM 35.3972 -80.3956 250° West 273 314 32,000  Level Atlanta Center
Mon 11:04:17 AM 35.3686 -80.4858 249° West 283 326 32,000  Level Atlanta Center
Mon 11:05:17 AM 35.3417 -80.5736 249° West 283 326 32,000  Level Atlanta Center
Mon 11:06:17 AM 35.3111 -80.6664 248° West 283 326 32,000  Level Atlanta Center
Mon 11:07:17 AM 35.2864 -80.7617 252° West 292 336 32,000  Level Atlanta Center
Mon 11:08:17 AM 35.2617 -80.8467 250° West 292 336 32,000  Level Atlanta Center
Mon 11:09:17 AM 35.2347 -80.9367 250° West 292 336 32,000  Level Atlanta Center
Mon 11:10:17 AM 35.2078 -81.0292 250° West 292 336 32,000  Level Atlanta Center
Mon 11:11:17 AM 35.1786 -81.1217 249° West 292 336 32,000  Level Atlanta Center
Mon 11:12:17 AM 35.1478 -81.2244 250° West 292 336 32,000  Level Atlanta Center
Mon 11:13:17 AM 35.1186 -81.3192 249° West 292 336 32,000  Level Atlanta Center
Mon 11:14:17 AM 35.0892 -81.4092 248° West 292 336 32,000  Level Atlanta Center
Mon 11:15:17 AM 35.0578 -81.4989 247° West 292 336 32,000  Level Atlanta Center
Mon 11:16:17 AM 35.0283 -81.5961 250° West 299 344 32,000  Level Atlanta Center
Mon 11:17:17 AM 35.0011 -81.6908 251° West 299 344 32,000  Level Atlanta Center
Mon 11:18:17 AM 34.9714 -81.7853 249° West 292 336 32,000  Level Atlanta Center
Mon 11:19:17 AM 34.9436 -81.8647 247° West 294 338 32,000  Level Atlanta Center
Mon 11:20:17 AM 34.9161 -81.9592 250° West 294 338 32,000  Level Atlanta Center
Mon 11:21:17 AM 34.8864 -82.0486 248° West 289 333 32,000  Level Atlanta Center
Mon 11:22:17 AM 34.8564 -82.1403 248° West 294 338 32,000  Level Atlanta Center
Mon 11:23:17 AM 34.8267 -82.2372 250° West 299 344 32,000  Level Atlanta Center
Mon 11:24:17 AM 34.7967 -82.3289 248° West 299 344 32,000  Level Atlanta Center
Mon 11:25:17 AM 34.7644 -82.4231 247° West 299 344 32,000  Level Atlanta Center
Mon 11:26:17 AM 34.7344 -82.5147 248° West 299 344 32,000  Level Atlanta Center
Mon 11:27:17 AM 34.7003 -82.6189 248° West 299 344 32,000  Level Atlanta Center
Mon 11:28:17 AM 34.6678 -82.7103 247° West 299 344 32,000  Level Atlanta Center
Mon 11:29:17 AM 34.6375 -82.8017 248° West 299 344 32,000  Level Atlanta Center
Mon 11:30:17 AM 34.6092 -82.8956 250° West 299 344 32,000  Level Atlanta Center
Mon 11:31:17 AM 34.5786 -82.9892 248° West 291 335 32,000  Level Atlanta Center
Mon 11:32:17 AM 34.5522 -83.0703 248° West 296 341 32,000  Level Atlanta Center
Mon 11:33:17 AM 34.5236 -83.1639 250° West 296 341 32,000  Level Atlanta Center
Mon 11:34:17 AM 34.4950 -83.2550 249° West 291 335 32,000  Level Atlanta Center
Mon 11:35:17 AM 34.4664 -83.3433 249° West 291 335 32,000  Level Atlanta Center
Mon 11:36:17 AM 34.4314 -83.4319 244° Southwest 291 335 32,000  Level Atlanta Center
Mon 11:37:17 AM 34.4025 -83.5253 249° West 296 341 32,000  Level Atlanta Center
Mon 11:38:17 AM 34.3736 -83.6186 249° West 296 341 32,000  Level Atlanta Center
Mon 11:39:17 AM 34.3406 -83.7167 248° West 296 341 32,000 -300 Level Atlanta Center
Mon 11:40:17 AM 34.3033 -83.8100 244° Southwest 301 346 31,400 -650 Descending Atlanta Center
Mon 11:41:17 AM 34.2681 -83.9056 246° West 306 352 30,700 -700 Descending Atlanta Center
Mon 11:42:17 AM 34.2492 -84.0136 258° West 317 365 30,000 -650 Descending Atlanta Center
Mon 11:43:17 AM 34.2450 -84.1167 267° West 317 365 29,400 -950 Descending Atlanta Center
Mon 11:44:17 AM 34.2367 -84.2297 265° West 322 371 28,100 -1,300 Descending Atlanta Center
Mon 11:45:17 AM 34.2322 -84.3428 267° West 339 390 26,800 -1,250 Descending Atlanta Center
Mon 11:46:17 AM 34.2236 -84.4583 265° West 344 396 25,600 -1,250 Descending Atlanta Center
Mon 11:47:17 AM 34.2189 -84.5714 267° West 344 396 24,300 -1,250 Descending Atlanta Center
Mon 11:48:17 AM 34.2122 -84.6844 266° West 349 402 23,100 -1,250 Descending Atlanta Center
Mon 11:49:17 AM 34.2072 -84.7922 267° West 343 395 21,800 -1,300 Descending Atlanta Center
Mon 11:50:17 AM 34.2003 -84.9003 266° West 331 381 20,500 -1,150 Descending Atlanta Center
Mon 11:51:17 AM 34.1786 -85.0081 256° West 331 381 19,500 -800 Descending Atlanta Center
Mon 11:52:17 AM 34.1050 -85.0700 215° Southwest 310 357 18,900 -650 Descending Atlanta Center
Mon 11:53:17 AM 34.0192 -85.1014 197° South 306 352 18,200 -750 Descending Atlanta Center
Mon 11:54:17 AM 33.9375 -85.1506 207° Southwest 328 377 17,400 -900 Descending Atlanta Center
Mon 11:55:17 AM 33.8867 -85.2275 231° Southwest 323 372 16,400 -1,100 Descending Atlanta Center
Mon 11:56:17 AM 33.8503 -85.3194 245° Southwest 313 360 15,200 -1,400 Descending Atlanta Center
Mon 11:57:17 AM 33.8158 -85.4014 243° Southwest 298 343 13,600 -1,900 Descending Atlanta Center
Mon 11:58:17 AM 33.7836 -85.4808 244° Southwest 272 313 11,400 -2,150 Descending Atlanta Center
Mon 11:59:17 AM 33.7494 -85.5528 240° Southwest 258 297 9,300 -1,850 Descending Atlanta Center
Mon 12:00:17 PM 33.7111 -85.6144 233° Southwest 246 283 7,700 -1,600 Descending Atlanta Center
Mon 12:01:17 PM 33.6686 -85.6736 229° Southwest 240 276 6,100 -1,600 Descending Atlanta Center

Login

Don't have an account? Register now (free) for customized features, flight alerts, and more!